createdAt,value
2023-01-07T00:01:24.013Z,7.55
2023-01-07T00:03:52.082Z,7.46
2023-01-07T00:06:27.456Z,7.34
2023-01-07T00:08:56.819Z,7.25
2023-01-07T00:11:29.025Z,7.20
2023-01-07T00:13:57.441Z,7.27
2023-01-07T00:16:26.815Z,7.20
2023-01-07T00:18:55.090Z,7.21
2023-01-07T00:21:23.091Z,7.17
2023-01-07T00:23:53.187Z,7.09
2023-01-07T00:26:21.129Z,6.98
2023-01-07T00:28:49.516Z,6.95
2023-01-07T00:31:17.330Z,6.95
2023-01-07T00:34:07.206Z,7.00
2023-01-07T00:36:37.320Z,7.07
2023-01-07T00:39:16.356Z,7.07
2023-01-07T00:42:03.407Z,7.06
2023-01-07T00:44:30.182Z,7.01
2023-01-07T00:46:57.921Z,7.00
2023-01-07T00:49:25.496Z,7.01
2023-01-07T00:51:54.557Z,6.99
2023-01-07T00:54:21.063Z,6.99
2023-01-07T00:56:47.599Z,7.00
2023-01-07T00:59:14.135Z,6.95
2023-01-07T01:01:40.736Z,6.97
2023-01-07T01:04:08.262Z,7.03
2023-01-07T01:06:35.557Z,7.11
2023-01-07T01:09:02.121Z,7.11
2023-01-07T01:11:28.666Z,7.11
2023-01-07T01:13:55.208Z,7.03
2023-01-07T01:16:22.160Z,6.92
2023-01-07T01:18:48.923Z,6.92
2023-01-07T01:21:17.171Z,6.81
2023-01-07T01:23:43.907Z,6.84
2023-01-07T01:26:13.315Z,6.87
2023-01-07T01:28:39.931Z,6.81
2023-01-07T01:31:08.462Z,6.76
2023-01-07T01:33:35.638Z,6.69
2023-01-07T01:36:08.265Z,6.69
2023-01-07T01:38:35.888Z,6.71
2023-01-07T01:41:02.447Z,6.68
2023-01-07T01:43:35.748Z,6.64
2023-01-07T01:46:06.821Z,6.56
2023-01-07T01:48:36.097Z,6.59
2023-01-07T01:51:03.896Z,6.59
2023-01-07T01:53:33.802Z,6.63
2023-01-07T01:56:18.032Z,6.60
2023-01-07T01:58:55.406Z,6.60
2023-01-07T02:01:22.247Z,6.37
2023-01-07T02:03:49.758Z,6.38
2023-01-07T02:06:23.998Z,6.36
2023-01-07T02:08:50.991Z,6.42
2023-01-07T02:11:24.100Z,6.50
2023-01-07T02:14:19.929Z,6.51
2023-01-07T02:16:52.160Z,6.56
2023-01-07T02:19:21.365Z,6.50
2023-01-07T02:22:11.855Z,6.42
2023-01-07T02:24:59.973Z,6.32
2023-01-07T02:27:47.771Z,6.34
2023-01-07T02:30:23.821Z,6.46
2023-01-07T02:33:09.085Z,6.59
2023-01-07T02:35:54.523Z,6.65
2023-01-07T02:38:20.953Z,6.69
2023-01-07T02:40:56.671Z,6.76
2023-01-07T02:43:34.500Z,6.76
2023-01-07T02:46:21.916Z,6.74
2023-01-07T02:48:48.804Z,6.76
2023-01-07T02:51:15.764Z,6.69
2023-01-07T02:53:45.738Z,6.76
2023-01-07T02:56:45.277Z,6.73
2023-01-07T02:59:23.158Z,6.80
2023-01-07T03:02:11.323Z,6.84
2023-01-07T03:04:38.335Z,6.73
2023-01-07T03:07:13.665Z,6.79
2023-01-07T03:09:49.736Z,6.85
2023-01-07T03:12:38.145Z,6.83
2023-01-07T03:15:24.476Z,6.84
2023-01-07T03:18:04.468Z,6.71
2023-01-07T03:20:34.616Z,6.56
2023-01-07T03:23:05.401Z,6.63
2023-01-07T03:25:35.373Z,6.63
2023-01-07T03:28:03.978Z,6.56
2023-01-07T03:30:31.304Z,6.52
2023-01-07T03:33:02.659Z,6.44
2023-01-07T03:35:31.965Z,6.47
2023-01-07T03:38:01.935Z,6.52
2023-01-07T03:40:28.636Z,6.47
2023-01-07T03:42:55.333Z,6.52
2023-01-07T03:45:24.689Z,6.57
2023-01-07T03:47:53.678Z,6.58
2023-01-07T03:50:20.565Z,6.52
2023-01-07T03:52:51.214Z,6.53
2023-01-07T03:55:18.442Z,6.49
2023-01-07T03:57:45.098Z,6.40
2023-01-07T04:00:13.595Z,6.38
2023-01-07T04:02:40.376Z,6.35
2023-01-07T04:05:07.441Z,6.41
2023-01-07T04:07:34.179Z,6.48
2023-01-07T04:10:01.167Z,6.51
2023-01-07T04:12:27.886Z,6.56
2023-01-07T04:14:56.310Z,6.58
2023-01-07T04:17:23.779Z,6.48
2023-01-07T04:19:50.616Z,6.44
2023-01-07T04:22:17.581Z,6.44
2023-01-07T04:24:44.099Z,6.44
2023-01-07T04:27:10.957Z,6.38
2023-01-07T04:29:37.986Z,6.48
2023-01-07T04:32:05.485Z,6.54
2023-01-07T04:34:31.995Z,6.56
2023-01-07T04:36:58.935Z,6.65
2023-01-07T04:39:25.406Z,6.68
2023-01-07T04:41:51.981Z,6.72
2023-01-07T04:44:18.726Z,6.74
2023-01-07T04:46:45.254Z,6.69
2023-01-07T04:49:12.227Z,6.53
2023-01-07T04:51:38.795Z,6.44
2023-01-07T04:54:05.596Z,6.49
2023-01-07T04:56:32.122Z,6.56
2023-01-07T04:58:58.551Z,6.57
2023-01-07T05:01:25.588Z,6.62
2023-01-07T05:03:52.222Z,6.62
2023-01-07T05:06:19.034Z,6.60
2023-01-07T05:08:45.771Z,6.58
2023-01-07T05:11:12.569Z,6.31
2023-01-07T05:13:38.997Z,6.34
2023-01-07T05:16:08.084Z,6.31
2023-01-07T05:18:34.548Z,6.25
2023-01-07T05:21:00.996Z,6.19
2023-01-07T05:23:27.488Z,6.20
2023-01-07T05:25:54.053Z,6.05
2023-01-07T05:28:20.758Z,6.13
2023-01-07T05:30:47.905Z,6.25
2023-01-07T05:33:14.697Z,6.32
2023-01-07T05:35:41.171Z,6.38
2023-01-07T05:38:07.586Z,6.34
2023-01-07T05:40:34.171Z,6.40
2023-01-07T05:43:01.132Z,6.52
2023-01-07T05:45:27.565Z,6.58
2023-01-07T05:47:54.051Z,6.58
2023-01-07T05:50:20.498Z,6.56
2023-01-07T05:52:47.558Z,6.58
2023-01-07T05:55:14.124Z,6.64
2023-01-07T05:57:40.648Z,6.68
2023-01-07T06:00:10.398Z,6.68
2023-01-07T06:02:37.294Z,6.71
2023-01-07T06:05:04.588Z,6.77
2023-01-07T06:07:31.127Z,6.73
2023-01-07T06:09:57.691Z,6.69
2023-01-07T06:12:24.533Z,6.60
2023-01-07T06:14:51.056Z,6.63
2023-01-07T06:17:17.763Z,6.61
2023-01-07T06:19:44.467Z,6.62
2023-01-07T06:22:11.208Z,6.54
2023-01-07T06:24:38.128Z,6.49
2023-01-07T06:27:04.956Z,6.38
2023-01-07T06:29:31.691Z,6.24
2023-01-07T06:31:58.734Z,6.22
2023-01-07T06:34:25.473Z,6.26
2023-01-07T06:36:52.002Z,6.26
2023-01-07T06:39:18.561Z,6.30
2023-01-07T06:41:45.095Z,6.27
2023-01-07T06:44:11.638Z,6.18
2023-01-07T06:46:38.206Z,6.11
2023-01-07T06:49:04.870Z,6.13
2023-01-07T06:51:31.397Z,6.06
2023-01-07T06:53:58.519Z,6.03
2023-01-07T06:56:25.549Z,5.95
2023-01-07T06:58:52.128Z,5.89
2023-01-07T07:01:19.094Z,5.93
2023-01-07T07:03:45.785Z,6.02
2023-01-07T07:06:12.423Z,5.95
2023-01-07T07:08:39.015Z,5.92
2023-01-07T07:11:06.838Z,5.90
2023-01-07T07:13:33.432Z,5.97
2023-01-07T07:16:00.269Z,6.04
2023-01-07T07:18:27.561Z,5.97
2023-01-07T07:20:54.853Z,5.97
2023-01-07T07:23:21.761Z,6.05
2023-01-07T07:25:48.796Z,6.03
2023-01-07T07:28:15.393Z,5.94
2023-01-07T07:30:47.291Z,5.95
2023-01-07T07:33:18.979Z,5.82
2023-01-07T07:35:46.832Z,5.85
2023-01-07T07:38:13.872Z,5.83
2023-01-07T07:40:41.485Z,5.92
2023-01-07T07:43:10.169Z,5.91
2023-01-07T07:45:40.181Z,5.75
2023-01-07T07:48:08.103Z,5.87
2023-01-07T07:50:35.692Z,5.95
2023-01-07T07:53:02.335Z,5.95
2023-01-07T07:55:28.825Z,5.96
2023-01-07T07:57:57.082Z,5.84
2023-01-07T08:00:24.240Z,5.84
2023-01-07T08:02:50.761Z,5.93
2023-01-07T08:05:17.469Z,5.95
2023-01-07T08:07:44.000Z,5.96
2023-01-07T08:10:10.689Z,6.02
2023-01-07T08:12:38.435Z,5.85
2023-01-07T08:15:07.049Z,5.94
2023-01-07T08:17:33.690Z,5.98
2023-01-07T08:20:00.486Z,6.09
2023-01-07T08:22:27.557Z,5.98
2023-01-07T08:24:54.345Z,6.12
2023-01-07T08:27:21.212Z,6.07
2023-01-07T08:29:47.819Z,6.17
2023-01-07T08:32:14.685Z,6.24
2023-01-07T08:34:41.255Z,6.30
2023-01-07T08:37:07.807Z,6.21
2023-01-07T08:39:34.260Z,6.26
2023-01-07T08:42:00.770Z,6.29
2023-01-07T08:44:27.242Z,6.44
2023-01-07T08:46:54.428Z,6.45
2023-01-07T08:49:21.439Z,6.47
2023-01-07T08:51:48.329Z,6.55
2023-01-07T08:54:15.467Z,6.67
2023-01-07T08:56:42.284Z,6.78
2023-01-07T08:59:08.995Z,6.87
2023-01-07T09:01:35.667Z,6.93
2023-01-07T09:04:02.252Z,6.90
2023-01-07T09:06:28.675Z,6.88
2023-01-07T09:08:55.134Z,6.93
2023-01-07T09:11:21.775Z,6.89
2023-01-07T09:13:48.266Z,7.00
2023-01-07T09:16:14.912Z,7.20
2023-01-07T09:18:41.461Z,7.31
2023-01-07T09:21:08.030Z,7.32
2023-01-07T09:23:34.568Z,7.34
2023-01-07T09:26:01.371Z,7.49
2023-01-07T09:28:31.958Z,7.63
2023-01-07T09:30:59.973Z,7.66
2023-01-07T09:33:26.485Z,7.57
2023-01-07T09:35:52.921Z,7.70
2023-01-07T09:38:19.478Z,7.70
2023-01-07T09:40:46.091Z,7.76
2023-01-07T09:43:58.692Z,7.83
2023-01-07T09:46:18.336Z,7.97
2023-01-07T09:48:54.071Z,8.09
2023-01-07T09:51:31.679Z,8.26
2023-01-07T09:54:01.626Z,8.42
2023-01-07T09:56:33.444Z,8.50
2023-01-07T09:59:01.739Z,8.58
2023-01-07T10:01:50.724Z,8.79
2023-01-07T10:04:35.560Z,8.97
2023-01-07T10:07:24.308Z,9.12
2023-01-07T10:10:03.856Z,9.00
2023-01-07T10:12:39.932Z,9.28
2023-01-07T10:15:22.255Z,9.65
2023-01-07T10:17:51.544Z,10.00
2023-01-07T10:20:46.496Z,9.87
2023-01-07T10:23:15.879Z,9.95
2023-01-07T10:25:51.407Z,9.93
2023-01-07T10:28:20.346Z,10.21
2023-01-07T10:30:53.510Z,10.84
2023-01-07T10:33:32.756Z,11.14
2023-01-07T10:36:17.668Z,11.25
2023-01-07T10:38:50.848Z,11.29
2023-01-07T10:41:25.938Z,11.14
2023-01-07T10:44:23.468Z,10.69
2023-01-07T10:47:34.394Z,10.69
2023-01-07T10:50:20.703Z,10.48
2023-01-07T10:53:14.172Z,10.48
2023-01-07T10:56:05.167Z,10.36
2023-01-07T10:58:38.810Z,10.25
2023-01-07T11:01:07.495Z,10.07
2023-01-07T11:03:34.339Z,9.66
2023-01-07T11:06:06.846Z,9.66
2023-01-07T11:08:39.301Z,9.76
2023-01-07T11:11:07.510Z,9.74
2023-01-07T11:13:37.869Z,9.79
2023-01-07T11:16:10.340Z,10.00
2023-01-07T11:18:57.678Z,9.74
2023-01-07T11:21:43.416Z,9.77
2023-01-07T11:24:19.621Z,9.72
2023-01-07T11:26:49.106Z,9.63
2023-01-07T11:29:41.394Z,9.78
2023-01-07T11:32:20.227Z,9.98
2023-01-07T11:34:56.433Z,10.13
2023-01-07T11:37:32.195Z,10.06
2023-01-07T11:40:01.039Z,10.23
2023-01-07T11:42:39.631Z,10.18
2023-01-07T11:45:35.804Z,9.93
2023-01-07T11:48:05.659Z,9.90
2023-01-07T11:50:37.915Z,10.15
2023-01-07T11:53:30.001Z,10.25
2023-01-07T11:55:57.059Z,10.54
2023-01-07T11:58:28.711Z,10.88
2023-01-07T12:01:14.030Z,11.07
2023-01-07T12:03:43.907Z,11.33
2023-01-07T12:06:31.222Z,11.35
2023-01-07T12:09:10.245Z,11.75
2023-01-07T12:11:41.923Z,12.02
2023-01-07T12:14:28.584Z,13.08
2023-01-07T12:16:57.300Z,14.43
2023-01-07T12:19:51.714Z,15.91
2023-01-07T12:22:31.001Z,16.90
2023-01-07T12:25:22.250Z,18.07
2023-01-07T12:27:54.520Z,19.49
2023-01-07T12:30:55.522Z,21.89
2023-01-07T12:33:47.539Z,23.73
2023-01-07T12:36:43.272Z,23.56
2023-01-07T12:39:25.818Z,23.46
2023-01-07T12:42:01.763Z,24.18
2023-01-07T12:44:28.415Z,25.10
2023-01-07T12:47:30.479Z,25.18
2023-01-07T12:50:13.333Z,26.00
2023-01-07T12:52:52.028Z,25.86
2023-01-07T12:55:23.259Z,25.61
2023-01-07T12:58:07.725Z,26.59
2023-01-07T13:00:44.222Z,26.73
2023-01-07T13:03:17.881Z,27.05
2023-01-07T13:05:59.694Z,27.46
2023-01-07T13:08:42.781Z,28.12
2023-01-07T13:11:44.690Z,27.41
2023-01-07T13:14:22.049Z,27.88
2023-01-07T13:16:49.289Z,26.56
2023-01-07T13:19:15.739Z,25.78
2023-01-07T13:21:45.079Z,25.84
2023-01-07T13:24:15.004Z,25.09
2023-01-07T13:27:11.705Z,24.46
2023-01-07T13:30:21.242Z,25.08
2023-01-07T13:33:34.201Z,24.88
2023-01-07T13:36:00.719Z,22.99
2023-01-07T13:39:01.660Z,20.35
2023-01-07T13:41:47.121Z,17.63
2023-01-07T13:44:26.189Z,16.35
2023-01-07T13:46:52.982Z,15.19
2023-01-07T13:49:29.086Z,14.18
2023-01-07T13:52:11.414Z,13.01
2023-01-07T13:54:50.528Z,12.77
2023-01-07T13:57:37.233Z,12.43
2023-01-07T14:00:07.025Z,12.30
2023-01-07T14:02:56.232Z,12.13
2023-01-07T14:05:25.399Z,12.22
2023-01-07T14:07:55.179Z,12.00
2023-01-07T14:10:32.396Z,11.74
2023-01-07T14:13:32.321Z,11.65
2023-01-07T14:16:14.107Z,11.69
2023-01-07T14:18:55.862Z,11.40
2023-01-07T14:21:49.440Z,11.47
2023-01-07T14:24:21.418Z,11.29
2023-01-07T14:26:47.990Z,11.43
2023-01-07T14:29:26.846Z,11.35
2023-01-07T14:32:21.435Z,11.27
2023-01-07T14:35:11.335Z,11.12
2023-01-07T14:37:39.036Z,11.04
2023-01-07T14:40:30.752Z,10.91
2023-01-07T14:42:58.311Z,10.82
2023-01-07T14:45:37.035Z,10.72
2023-01-07T14:48:09.913Z,10.58
2023-01-07T14:50:50.814Z,10.21
2023-01-07T14:53:36.750Z,10.19
2023-01-07T14:56:31.593Z,10.17
2023-01-07T14:59:42.630Z,10.05
2023-01-07T15:02:46.482Z,10.14
2023-01-07T15:05:17.991Z,10.06
2023-01-07T15:08:15.924Z,10.02
2023-01-07T15:11:01.821Z,9.91
2023-01-07T15:13:48.251Z,9.75
2023-01-07T15:16:16.116Z,9.78
2023-01-07T15:18:49.556Z,9.79
2023-01-07T15:21:35.870Z,9.61
2023-01-07T15:24:18.816Z,9.58
2023-01-07T15:26:59.576Z,9.45
2023-01-07T15:29:46.663Z,9.56
2023-01-07T15:32:19.026Z,9.60
2023-01-07T15:34:45.597Z,9.24
2023-01-07T15:37:14.341Z,9.17
2023-01-07T15:39:45.224Z,8.97
2023-01-07T15:42:16.107Z,8.87
2023-01-07T15:44:43.177Z,8.98
2023-01-07T15:47:33.434Z,8.89
2023-01-07T15:50:27.886Z,8.63
2023-01-07T15:53:00.434Z,8.73
2023-01-07T15:55:26.899Z,8.80
2023-01-07T15:58:01.769Z,8.72
2023-01-07T16:00:28.549Z,8.66
2023-01-07T16:02:55.960Z,8.59
2023-01-07T16:05:25.181Z,8.58
2023-01-07T16:07:59.228Z,8.61
2023-01-07T16:10:32.370Z,8.58
2023-01-07T16:13:19.092Z,8.34
2023-01-07T16:15:45.625Z,8.18
2023-01-07T16:18:13.387Z,8.12
2023-01-07T16:20:48.969Z,8.18
2023-01-07T16:23:25.195Z,8.13
2023-01-07T16:26:06.657Z,7.88
2023-01-07T16:28:38.336Z,7.82
2023-01-07T16:31:09.158Z,7.87
2023-01-07T16:33:38.284Z,7.99
2023-01-07T16:36:30.366Z,7.91
2023-01-07T16:39:00.648Z,7.99
2023-01-07T16:41:29.399Z,7.89
2023-01-07T16:43:56.723Z,7.71
2023-01-07T16:46:43.007Z,7.80
2023-01-07T16:49:18.508Z,7.70
2023-01-07T16:51:46.388Z,7.70
2023-01-07T16:54:25.031Z,7.72
2023-01-07T16:56:52.631Z,7.63
2023-01-07T16:59:21.147Z,7.72
2023-01-07T17:01:48.848Z,7.80
2023-01-07T17:04:20.536Z,7.82
2023-01-07T17:06:47.716Z,7.70
2023-01-07T17:09:27.184Z,7.68
2023-01-07T17:11:54.817Z,7.67
2023-01-07T17:14:33.418Z,7.66
2023-01-07T17:17:00.462Z,7.68
2023-01-07T17:19:33.721Z,7.64
2023-01-07T17:22:01.553Z,7.57
2023-01-07T17:24:28.533Z,7.53
2023-01-07T17:26:58.250Z,7.56
2023-01-07T17:29:32.016Z,7.57
2023-01-07T17:31:58.845Z,7.49
2023-01-07T17:34:25.564Z,7.49
2023-01-07T17:36:52.144Z,7.36
2023-01-07T17:39:18.672Z,7.32
2023-01-07T17:42:03.700Z,7.29
2023-01-07T17:44:32.907Z,7.28
2023-01-07T17:46:59.360Z,7.31
2023-01-07T17:49:25.896Z,7.18
2023-01-07T17:51:54.630Z,7.25
2023-01-07T17:54:25.415Z,7.39
2023-01-07T17:56:52.566Z,7.39
2023-01-07T17:59:22.097Z,7.38
2023-01-07T18:01:50.895Z,7.43
2023-01-07T18:04:18.123Z,7.43
2023-01-07T18:06:44.902Z,7.32
2023-01-07T18:09:13.608Z,7.12
2023-01-07T18:12:01.778Z,7.07
2023-01-07T18:14:28.366Z,7.06
2023-01-07T18:16:54.788Z,7.06
2023-01-07T18:19:21.335Z,7.07
2023-01-07T18:21:47.767Z,6.95
2023-01-07T18:24:16.610Z,6.76
2023-01-07T18:26:43.666Z,6.79
2023-01-07T18:29:11.115Z,6.86
2023-01-07T18:31:42.953Z,6.87
2023-01-07T18:34:13.637Z,6.69
2023-01-07T18:36:40.381Z,6.78
2023-01-07T18:39:09.877Z,6.72
2023-01-07T18:41:39.371Z,6.76
2023-01-07T18:44:06.700Z,6.56
2023-01-07T18:46:33.440Z,6.47
2023-01-07T18:49:00.330Z,6.64
2023-01-07T18:51:26.874Z,6.78
2023-01-07T18:53:53.330Z,6.47
2023-01-07T18:56:20.514Z,6.51
2023-01-07T18:58:47.008Z,6.63
2023-01-07T19:01:13.617Z,6.56
2023-01-07T19:03:40.343Z,6.42
2023-01-07T19:06:09.120Z,6.49
2023-01-07T19:08:35.985Z,6.57
2023-01-07T19:11:09.053Z,6.48
2023-01-07T19:13:36.656Z,6.54
2023-01-07T19:16:08.294Z,6.50
2023-01-07T19:18:34.877Z,6.47
2023-01-07T19:21:10.496Z,6.47
2023-01-07T19:23:38.029Z,6.57
2023-01-07T19:26:07.736Z,6.56
2023-01-07T19:28:35.041Z,6.47
2023-01-07T19:31:08.015Z,6.51
2023-01-07T19:33:36.038Z,6.35
2023-01-07T19:36:11.497Z,6.43
2023-01-07T19:38:44.731Z,6.46
2023-01-07T19:41:14.063Z,6.47
2023-01-07T19:43:41.207Z,6.51
2023-01-07T19:46:08.291Z,6.65
2023-01-07T19:48:35.569Z,6.60
2023-01-07T19:51:04.382Z,6.53
2023-01-07T19:53:32.180Z,6.42
2023-01-07T19:56:03.864Z,6.41
2023-01-07T19:58:30.295Z,6.30
2023-01-07T20:01:02.547Z,6.20
2023-01-07T20:03:34.189Z,6.28
2023-01-07T20:06:06.900Z,6.07
2023-01-07T20:08:34.136Z,6.23
2023-01-07T20:11:00.948Z,6.38
2023-01-07T20:13:30.246Z,6.37
2023-01-07T20:15:56.723Z,6.38
2023-01-07T20:18:23.345Z,6.28
2023-01-07T20:20:57.563Z,6.36
2023-01-07T20:23:25.104Z,6.47
2023-01-07T20:25:52.085Z,6.40
2023-01-07T20:28:18.901Z,6.47
2023-01-07T20:30:45.631Z,6.52
2023-01-07T20:33:12.161Z,6.63
2023-01-07T20:35:39.722Z,6.60
2023-01-07T20:38:09.595Z,6.63
2023-01-07T20:40:42.368Z,6.56
2023-01-07T20:43:09.436Z,6.27
2023-01-07T20:45:38.420Z,6.32
2023-01-07T20:48:07.541Z,6.25
2023-01-07T20:50:36.369Z,6.15
2023-01-07T20:53:03.333Z,6.28
2023-01-07T20:55:29.950Z,6.27
2023-01-07T20:57:56.598Z,6.43
2023-01-07T21:00:25.587Z,6.59
2023-01-07T21:02:52.154Z,6.57
2023-01-07T21:05:21.057Z,6.56
2023-01-07T21:07:48.298Z,6.15
2023-01-07T21:10:16.692Z,6.11
2023-01-07T21:12:43.435Z,6.21
2023-01-07T21:15:13.061Z,6.25
2023-01-07T21:17:41.919Z,6.23
2023-01-07T21:20:12.297Z,6.17
2023-01-07T21:22:38.980Z,6.21
2023-01-07T21:25:10.253Z,6.37
2023-01-07T21:27:38.273Z,6.16
2023-01-07T21:30:07.791Z,6.31
2023-01-07T21:32:35.550Z,6.43
2023-01-07T21:35:03.043Z,6.40
2023-01-07T21:37:29.629Z,6.17
2023-01-07T21:39:56.180Z,6.38
2023-01-07T21:42:22.687Z,6.58
2023-01-07T21:44:49.220Z,6.67
2023-01-07T21:47:15.708Z,6.83
2023-01-07T21:49:42.863Z,6.85
2023-01-07T21:52:09.620Z,6.87
2023-01-07T21:54:36.933Z,6.77
2023-01-07T21:57:03.643Z,6.40
2023-01-07T21:59:30.277Z,6.51
2023-01-07T22:01:56.959Z,6.77
2023-01-07T22:04:23.602Z,6.85
2023-01-07T22:06:50.581Z,6.85
2023-01-07T22:09:17.433Z,7.09
2023-01-07T22:11:44.857Z,7.04
2023-01-07T22:14:17.940Z,6.98
2023-01-07T22:16:47.432Z,6.92
2023-01-07T22:19:15.367Z,6.93
2023-01-07T22:21:41.954Z,7.07
2023-01-07T22:24:09.267Z,7.10
2023-01-07T22:26:36.924Z,7.19
2023-01-07T22:29:07.715Z,7.35
2023-01-07T22:31:36.810Z,7.39
2023-01-07T22:34:05.822Z,7.60
2023-01-07T22:36:40.836Z,7.30
2023-01-07T22:39:17.285Z,7.34
2023-01-07T22:41:44.108Z,7.19
2023-01-07T22:44:14.654Z,7.22
2023-01-07T22:46:44.324Z,7.21
2023-01-07T22:49:10.843Z,7.12
2023-01-07T22:51:46.704Z,7.21
2023-01-07T22:54:14.726Z,7.07
2023-01-07T22:56:42.301Z,7.05
2023-01-07T22:59:09.368Z,7.04
2023-01-07T23:01:37.927Z,7.12
2023-01-07T23:04:05.479Z,6.99
2023-01-07T23:06:32.200Z,6.95
2023-01-07T23:08:58.671Z,7.11
2023-01-07T23:11:43.646Z,7.04
2023-01-07T23:14:10.297Z,7.22
2023-01-07T23:16:37.365Z,7.40
2023-01-07T23:19:04.159Z,7.26
2023-01-07T23:21:34.374Z,7.05
2023-01-07T23:24:01.346Z,7.12
2023-01-07T23:26:28.001Z,7.32
2023-01-07T23:28:54.581Z,7.30
2023-01-07T23:31:21.140Z,7.30
2023-01-07T23:33:47.803Z,7.14
2023-01-07T23:36:14.316Z,6.93
2023-01-07T23:38:40.891Z,7.19
2023-01-07T23:41:09.854Z,7.43
2023-01-07T23:43:37.601Z,7.48
2023-01-07T23:46:06.832Z,7.56
2023-01-07T23:48:35.851Z,7.55
2023-01-07T23:51:17.339Z,7.39
2023-01-07T23:53:45.035Z,7.48
2023-01-07T23:56:12.625Z,7.44
2023-01-07T23:58:39.349Z,7.29
